Messwerte Wetterstation Darmstadt 162m (Hessen)

Aktuelle Messwerte

Temperatur und Niederschlag
Taupunkt, Temperatur und Luftfeuchtigkeit

Anzeige

Datum Temperatur °C Niederschlag l/m² (10 min) Taupunkt °C Rel. Feuchte %
22.04 - 22:20 Uhr 7.4 0.0 2.7 72
22.04 - 22:10 Uhr 7.5 0.0 2.6 71
22.04 - 22:00 Uhr 7.6 0.0 2.9 72
22.04 - 21:50 Uhr 8.0 0.0 2.8 70
22.04 - 21:40 Uhr 8.1 0.0 2.9 70
22.04 - 21:30 Uhr 8.5 0.0 2.9 68
22.04 - 21:20 Uhr 8.8 0.0 3.0 67
22.04 - 21:10 Uhr 9.5 0.0 3.0 64
22.04 - 21:00 Uhr 10.0 0.0 3.1 62
22.04 - 20:50 Uhr 10.8 0.0 3.1 59
22.04 - 20:40 Uhr 11.8 0.0 2.5 53
22.04 - 20:30 Uhr 12.5 0.0 1.8 48
22.04 - 20:20 Uhr 13.0 0.0 2.1 48
22.04 - 20:10 Uhr 13.8 0.0 1.6 43
22.04 - 20:00 Uhr 14.8 0.0 0.9 39
22.04 - 19:50 Uhr 15.5 0.0 0.3 35
22.04 - 19:40 Uhr 15.8 0.0 -0.2 34
22.04 - 19:30 Uhr 16.2 0.0 -0.6 32
22.04 - 19:20 Uhr 16.4 0.0 -1.2 30
22.04 - 19:10 Uhr 16.4 0.0 -1.6 29
22.04 - 19:00 Uhr 16.8 0.0 -1.5 29
22.04 - 18:50 Uhr 16.8 0.0 -1.3 29
22.04 - 18:40 Uhr 16.9 0.0 -1.5 29
22.04 - 18:30 Uhr 17.1 0.0 -1.8 28
22.04 - 18:20 Uhr 17.3 0.0 -2.1 27
22.04 - 18:10 Uhr 17.4 0.0 -2.3 26
22.04 - 18:00 Uhr 17.4 0.0 -2.2 26
22.04 - 17:50 Uhr 17.6 0.0 -1.8 27
22.04 - 17:40 Uhr 17.8 0.0 -1.7 27
22.04 - 17:30 Uhr 17.5 0.0 -2.8 25
22.04 - 17:20 Uhr 17.5 0.0 -3.1 24
22.04 - 17:10 Uhr 17.3 0.0 -2.1 27
22.04 - 17:00 Uhr 17.4 0.0 -2.4 26
22.04 - 16:50 Uhr 17.3 0.0 -2.7 25
22.04 - 16:40 Uhr 17.1 0.0 -2.6 26
22.04 - 16:30 Uhr 17.4 0.0 -1.6 27
22.04 - 16:20 Uhr 16.9 0.0 -2.0 27
22.04 - 16:10 Uhr 17.1 0.0 -1.6 28
22.04 - 16:00 Uhr 17.3 0.0 -2.0 27
22.04 - 15:50 Uhr 17.3 0.0 -1.7 27
22.04 - 15:40 Uhr 16.5 0.0 -1.7 29
22.04 - 15:30 Uhr 17.1 0.0 -1.3 29
22.04 - 15:20 Uhr 16.4 0.0 -1.9 29
22.04 - 15:10 Uhr 16.2 0.0 -2.2 28
22.04 - 15:00 Uhr 16.7 0.0 -1.5 29
22.04 - 14:50 Uhr 16.1 0.0 -1.5 30
22.04 - 14:40 Uhr 16.2 0.0 -1.0 31
22.04 - 14:30 Uhr 15.5 0.0 -2.2 30
22.04 - 14:20 Uhr 15.9 0.0 -1.5 30
22.04 - 14:10 Uhr 16.1 0.0 -0.8 32
22.04 - 14:00 Uhr 15.8 0.0 -1.4 31
22.04 - 13:50 Uhr 15.2 0.0 -2.1 31
22.04 - 13:40 Uhr 15.1 0.0 -2.3 30
22.04 - 13:30 Uhr 15.4 0.0 -1.4 32
22.04 - 13:20 Uhr 15.5 0.0 -0.8 33
22.04 - 13:10 Uhr 15.0 0.0 -1.7 32
22.04 - 13:00 Uhr 14.9 0.0 -2.2 31
22.04 - 12:50 Uhr 14.6 0.0 -2.3 31
22.04 - 12:40 Uhr 14.6 0.0 -2.2 31
22.04 - 12:30 Uhr 14.2 0.0 -2.1 32
22.04 - 12:20 Uhr 14.4 0.0 -2.1 32
22.04 - 12:10 Uhr 14.5 0.0 -0.4 36
22.04 - 12:00 Uhr 13.9 0.0 -1.9 34
22.04 - 11:50 Uhr 13.6 0.0 -1.5 35
22.04 - 11:40 Uhr 13.7 0.0 -0.9 37
22.04 - 11:30 Uhr 13.4 0.0 -1.0 37
22.04 - 11:20 Uhr 13.4 0.0 -1.0 37
22.04 - 11:10 Uhr 13.4 0.0 0.5 41
22.04 - 11:00 Uhr 12.7 0.0 -0.2 41
22.04 - 10:50 Uhr 12.5 0.0 -0.1 42
22.04 - 10:40 Uhr 12.2 0.0 0.8 46
22.04 - 10:30 Uhr 12.1 0.0 0.8 46
22.04 - 10:20 Uhr 11.7 0.0 0.6 47
22.04 - 10:10 Uhr 11.2 0.0 0.1 46
22.04 - 10:00 Uhr 10.6 0.0 -0.2 47
22.04 - 09:50 Uhr 10.5 0.0 0.5 50
22.04 - 09:40 Uhr 10.3 0.0 -0.1 48
22.04 - 09:30 Uhr 9.8 0.0 -0.2 50
22.04 - 09:20 Uhr 9.5 0.0 0.1 52
22.04 - 09:10 Uhr 9.1 0.0 0.6 55
22.04 - 09:00 Uhr 8.7 0.0 0.3 56
22.04 - 08:50 Uhr 7.9 0.0 0.2 58
22.04 - 08:40 Uhr 7.4 0.0 0.7 63
22.04 - 08:30 Uhr 7.0 0.0 1.0 66
22.04 - 08:20 Uhr 6.1 0.0 1.1 70
22.04 - 08:10 Uhr 5.6 0.0 0.9 72
22.04 - 08:00 Uhr 4.8 0.0 0.9 76
22.04 - 07:50 Uhr 3.9 0.0 0.4 78
22.04 - 07:40 Uhr 3.2 0.0 0.1 80
22.04 - 07:30 Uhr 2.6 0.0 0.1 83
22.04 - 07:20 Uhr 1.8 0.0 -0.3 86
22.04 - 07:10 Uhr 1.2 0.0 -0.5 88
22.04 - 07:00 Uhr 0.8 0.0 -0.8 89
22.04 - 06:50 Uhr 0.4 0.0 -1.0 90
22.04 - 06:40 Uhr 0.0 0.0 -1.2 91
22.04 - 06:30 Uhr -0.2 0.0 -1.3 92
22.04 - 06:20 Uhr -0.1 0.0 -1.3 92
22.04 - 06:10 Uhr -0.3 0.0 -1.4 92
22.04 - 06:00 Uhr 0.0 0.0 -1.2 92
22.04 - 05:50 Uhr 0.2 0.0 -1.2 91
22.04 - 05:40 Uhr 0.5 0.0 -1.0 90
22.04 - 05:30 Uhr 0.5 0.0 -1.0 90
22.04 - 05:20 Uhr 0.6 0.0 -0.9 90
22.04 - 05:10 Uhr 0.9 0.0 -0.8 88
22.04 - 05:00 Uhr 0.9 0.0 -0.9 88
22.04 - 04:50 Uhr 1.0 0.0 -0.7 88
22.04 - 04:40 Uhr 1.0 0.0 -0.7 88
22.04 - 04:30 Uhr 1.1 0.0 -0.7 88
22.04 - 04:20 Uhr 1.1 0.0 -0.7 88
22.04 - 04:10 Uhr 1.3 0.0 -0.6 88
22.04 - 04:00 Uhr 1.1 0.0 -0.8 87
22.04 - 03:50 Uhr 1.6 0.0 -0.4 86
22.04 - 03:40 Uhr 1.7 0.0 -0.5 85
22.04 - 03:30 Uhr 1.7 0.0 -0.4 86
22.04 - 03:20 Uhr 1.6 0.0 -0.6 86
22.04 - 03:10 Uhr 1.9 0.0 -0.4 85
22.04 - 03:00 Uhr 2.1 0.0 -0.3 84
22.04 - 02:50 Uhr 2.3 0.0 -0.3 83
22.04 - 02:40 Uhr 2.5 0.0 -0.3 82
22.04 - 02:30 Uhr 2.8 0.0 -0.2 81
22.04 - 02:20 Uhr 2.6 0.0 -0.3 81
22.04 - 02:10 Uhr 2.7 0.0 -0.2 81
22.04 - 02:00 Uhr 2.8 0.0 -0.4 80
22.04 - 01:50 Uhr 3.4 0.0 -0.2 77
22.04 - 01:40 Uhr 3.9 0.0 -0.3 74
22.04 - 01:30 Uhr 4.7 0.0 -0.3 70
22.04 - 01:20 Uhr 5.0 0.0 -0.3 69
22.04 - 01:10 Uhr 5.1 0.0 -0.3 68
22.04 - 01:00 Uhr 5.2 0.0 -0.4 67
22.04 - 00:50 Uhr 5.3 0.0 -0.3 67
22.04 - 00:40 Uhr 5.4 0.0 -0.4 66
22.04 - 00:30 Uhr 5.7 0.0 -0.3 65
22.04 - 00:20 Uhr 6.0 0.0 -0.3 64
22.04 - 00:10 Uhr 5.9 0.0 -0.3 64
22.04 - 00:00 Uhr 5.9 0.0 -0.2 65
21.04 - 23:50 Uhr 5.9 0.0 -0.2 65
21.04 - 23:40 Uhr 6.2 0.0 -0.2 64
21.04 - 23:30 Uhr 6.6 0.0 -0.2 62
21.04 - 23:20 Uhr 6.4 0.0 -0.1 63
21.04 - 23:10 Uhr 6.7 0.0 -0.1 62
21.04 - 23:00 Uhr 7.0 0.0 -0.2 60
21.04 - 22:50 Uhr 6.7 0.0 -0.1 62
21.04 - 22:40 Uhr 6.5 0.0 -0.1 63
21.04 - 22:30 Uhr 6.2 0.0 -0.1 64

Daten: Quelle DWD